createdAt,value
2019-05-06T00:01:04.783Z,98232.28
2019-05-06T00:03:34.342Z,98227.22
2019-05-06T00:06:03.960Z,98229.82
2019-05-06T00:08:34.538Z,98230.82
2019-05-06T00:11:04.747Z,98232.67
2019-05-06T00:13:34.380Z,98233.36
2019-05-06T00:16:03.959Z,98227.00
2019-05-06T00:18:34.202Z,98232.13
2019-05-06T00:21:04.712Z,98235.13
2019-05-06T00:23:37.845Z,98236.19
2019-05-06T00:26:21.856Z,98239.64
2019-05-06T00:28:53.954Z,98240.55
2019-05-06T00:31:25.368Z,98240.34
2019-05-06T00:33:54.154Z,98240.04
2019-05-06T00:36:23.704Z,98240.04
2019-05-06T00:38:54.061Z,98235.49
2019-05-06T00:41:29.567Z,98242.80
2019-05-06T00:43:57.890Z,98244.11
2019-05-06T00:46:26.566Z,98248.07
2019-05-06T00:48:54.984Z,98247.41
2019-05-06T00:51:24.359Z,98242.63
2019-05-06T00:54:00.327Z,98241.53
2019-05-06T00:56:28.899Z,98245.61
2019-05-06T00:58:57.264Z,98245.55
2019-05-06T01:01:29.625Z,98242.55
2019-05-06T01:03:56.053Z,98237.42
2019-05-06T01:06:24.775Z,98246.09
2019-05-06T01:08:54.360Z,98245.25
2019-05-06T01:11:23.991Z,98239.73
2019-05-06T01:14:00.374Z,98238.12
2019-05-06T01:16:28.771Z,98244.23
2019-05-06T01:18:57.446Z,98238.48
2019-05-06T01:21:25.735Z,98242.39
2019-05-06T01:23:54.597Z,98244.01
2019-05-06T01:26:24.250Z,98245.41
2019-05-06T01:28:54.619Z,98242.86
2019-05-06T01:31:26.022Z,98244.64
2019-05-06T01:33:53.788Z,98240.49
2019-05-06T01:36:22.159Z,98242.09
2019-05-06T01:39:04.457Z,98242.09
2019-05-06T01:41:34.542Z,98243.09
2019-05-06T01:44:04.239Z,98243.16
2019-05-06T01:46:33.968Z,98242.41
2019-05-06T01:49:04.269Z,98239.95
2019-05-06T01:51:34.790Z,98246.16
2019-05-06T01:54:03.766Z,98248.91
2019-05-06T01:56:33.676Z,98247.31
2019-05-06T01:59:04.369Z,98244.25
2019-05-06T02:01:34.215Z,98243.02
2019-05-06T02:04:04.432Z,98240.80
2019-05-06T02:06:34.236Z,98244.02
2019-05-06T02:09:04.609Z,98249.30
2019-05-06T02:11:33.703Z,98243.34
2019-05-06T02:14:04.584Z,98248.56
2019-05-06T02:16:34.131Z,98250.31
2019-05-06T02:19:04.043Z,98245.00
2019-05-06T02:21:34.015Z,98245.00
2019-05-06T02:24:06.473Z,98254.44
2019-05-06T02:26:34.783Z,98251.61
2019-05-06T02:29:04.756Z,98251.53
2019-05-06T02:31:46.399Z,98251.48
2019-05-06T02:34:36.380Z,98253.05
2019-05-06T02:37:09.391Z,98258.94
2019-05-06T02:39:37.728Z,98264.00
2019-05-06T02:42:08.069Z,98264.91
2019-05-06T02:44:36.787Z,98264.23
2019-05-06T02:47:23.431Z,98262.92
2019-05-06T02:49:58.891Z,98269.45
2019-05-06T02:52:27.189Z,98264.03
2019-05-06T02:54:55.512Z,98262.64
2019-05-06T02:57:24.249Z,98259.80
2019-05-06T02:59:55.286Z,98272.47
2019-05-06T03:02:39.071Z,98273.81
2019-05-06T03:04:53.138Z,98273.81
2019-05-06T03:07:23.326Z,98277.45
2019-05-06T03:09:53.281Z,98274.67
2019-05-06T03:12:22.882Z,98277.83
2019-05-06T03:14:53.303Z,98274.91
2019-05-06T03:17:23.463Z,98280.98
2019-05-06T03:19:53.662Z,98277.23
2019-05-06T03:22:27.655Z,98284.64
2019-05-06T03:24:55.483Z,98284.31
2019-05-06T03:27:24.287Z,98283.69
2019-05-06T03:29:53.664Z,98278.59
2019-05-06T03:32:29.853Z,98285.22
2019-05-06T03:35:16.309Z,98283.07
2019-05-06T03:37:23.956Z,98285.86
2019-05-06T03:39:53.076Z,98290.76
2019-05-06T03:42:23.100Z,98302.03
2019-05-06T03:44:53.682Z,98289.11
2019-05-06T03:47:40.019Z,98297.54
2019-05-06T03:50:08.778Z,98292.86
2019-05-06T03:52:37.151Z,98304.36
2019-05-06T03:55:05.939Z,98298.53
2019-05-06T03:57:36.189Z,98302.21
2019-05-06T04:00:06.288Z,98304.92
2019-05-06T04:02:39.403Z,98298.43
2019-05-06T04:05:06.620Z,98303.14
2019-05-06T04:07:35.070Z,98304.88
2019-05-06T04:10:04.898Z,98302.02
2019-05-06T04:12:34.640Z,98312.45
2019-05-06T04:15:04.321Z,98312.55
2019-05-06T04:17:40.408Z,98309.72
2019-05-06T04:20:16.838Z,98312.31
2019-05-06T04:22:55.718Z,98313.31
2019-05-06T04:25:43.567Z,98312.08
2019-05-06T04:28:14.233Z,98314.23
2019-05-06T04:30:43.183Z,98320.30
2019-05-06T04:33:16.910Z,98320.26
2019-05-06T04:35:43.002Z,98328.16
2019-05-06T04:38:14.011Z,98332.45
2019-05-06T04:40:43.972Z,98327.41
2019-05-06T04:43:13.371Z,98337.42
2019-05-06T04:45:43.330Z,98333.94
2019-05-06T04:48:14.261Z,98336.30
2019-05-06T04:50:44.285Z,98338.77
2019-05-06T04:53:13.650Z,98348.15
2019-05-06T04:55:43.751Z,98343.30
2019-05-06T04:58:13.402Z,98346.61
2019-05-06T05:00:44.421Z,98348.27
2019-05-06T05:03:13.964Z,98352.27
2019-05-06T05:05:44.755Z,98359.95
2019-05-06T05:08:13.416Z,98353.27
2019-05-06T05:11:03.728Z,98352.81
2019-05-06T05:13:43.347Z,98343.89
2019-05-06T05:16:16.508Z,98343.89
2019-05-06T05:18:49.135Z,98358.50
2019-05-06T05:21:17.431Z,98347.52
2019-05-06T05:23:45.823Z,98347.52
2019-05-06T05:26:14.503Z,98357.59
2019-05-06T05:28:43.095Z,98356.43
2019-05-06T05:31:12.291Z,98351.03
2019-05-06T05:33:42.312Z,98351.03
2019-05-06T05:36:12.359Z,98358.04
2019-05-06T05:38:42.877Z,98365.78
2019-05-06T05:41:12.595Z,98356.05
2019-05-06T05:43:45.517Z,98363.96
2019-05-06T05:46:14.140Z,98356.19
2019-05-06T05:48:54.124Z,98365.62
2019-05-06T05:51:22.484Z,98366.48
2019-05-06T05:53:52.311Z,98364.42
2019-05-06T05:56:23.796Z,98367.18
2019-05-06T05:58:53.503Z,98367.18
2019-05-06T06:01:23.395Z,98361.64
2019-05-06T06:03:52.832Z,98360.95
2019-05-06T06:06:22.315Z,98360.95
2019-05-06T06:08:52.357Z,98368.69
2019-05-06T06:11:26.443Z,98358.84
2019-05-06T06:13:56.633Z,98362.37
2019-05-06T06:16:29.391Z,98355.28
2019-05-06T06:18:59.330Z,98355.28
2019-05-06T06:21:35.082Z,98365.51
2019-05-06T06:24:07.948Z,98367.13
2019-05-06T06:26:36.277Z,98367.13
2019-05-06T06:29:04.841Z,98366.75
2019-05-06T06:31:34.844Z,98354.36
2019-05-06T06:34:07.211Z,98354.36
2019-05-06T06:36:37.141Z,98362.44
2019-05-06T06:39:12.500Z,98367.13
2019-05-06T06:41:42.378Z,98367.13
2019-05-06T06:44:13.242Z,98354.03
2019-05-06T06:46:42.908Z,98354.03
2019-05-06T06:49:12.700Z,98368.55
2019-05-06T06:51:42.509Z,98368.55
2019-05-06T06:54:12.293Z,98359.70
2019-05-06T06:57:03.164Z,98359.70
2019-05-06T06:59:25.851Z,98363.41
2019-05-06T07:02:08.048Z,98355.00
2019-05-06T07:04:42.986Z,98355.00
2019-05-06T07:07:12.926Z,98357.28
2019-05-06T07:09:42.030Z,98357.28
2019-05-06T07:12:13.026Z,98367.48
2019-05-06T07:14:42.294Z,98367.48
2019-05-06T07:17:13.197Z,98360.70
2019-05-06T07:19:45.737Z,98360.70
2019-05-06T07:22:14.027Z,98359.08
2019-05-06T07:24:43.098Z,98349.91
2019-05-06T07:27:15.952Z,98349.91
2019-05-06T07:29:48.434Z,98350.47
2019-05-06T07:32:14.362Z,98352.22
2019-05-06T07:34:42.766Z,98356.33
2019-05-06T07:37:12.495Z,98352.34
2019-05-06T07:39:43.040Z,98355.77
2019-05-06T07:42:18.484Z,98356.12
2019-05-06T07:45:06.611Z,98351.60
2019-05-06T07:47:35.470Z,98352.38
2019-05-06T07:50:06.330Z,98342.48
2019-05-06T07:52:34.799Z,98346.61
2019-05-06T07:55:03.155Z,98340.15
2019-05-06T07:57:33.054Z,98344.84
2019-05-06T08:00:03.432Z,98334.98
2019-05-06T08:02:32.171Z,98333.48
2019-05-06T08:05:02.601Z,98341.53
2019-05-06T08:07:33.131Z,98343.44
2019-05-06T08:10:02.161Z,98353.99
2019-05-06T08:12:32.662Z,98340.23
2019-05-06T08:15:04.484Z,98331.33
2019-05-06T08:17:33.178Z,98347.70
2019-05-06T08:20:02.693Z,98347.70
2019-05-06T08:22:33.358Z,98349.69
2019-05-06T08:25:03.431Z,98348.67
2019-05-06T08:27:32.982Z,98349.87
2019-05-06T08:30:02.385Z,98346.87
2019-05-06T08:32:32.189Z,98346.87
2019-05-06T08:35:03.363Z,98348.09
2019-05-06T08:37:35.722Z,98349.77
2019-05-06T08:40:05.258Z,98344.17
2019-05-06T08:42:33.647Z,98348.45
2019-05-06T08:45:02.274Z,98330.69
2019-05-06T08:47:32.859Z,98337.98
2019-05-06T08:50:02.648Z,98338.55
2019-05-06T08:52:49.633Z,98338.55
2019-05-06T08:55:36.107Z,98337.97
2019-05-06T08:58:04.697Z,98337.25
2019-05-06T09:00:35.083Z,98337.25
2019-05-06T09:03:04.270Z,98334.53
2019-05-06T09:05:33.271Z,98334.53
2019-05-06T09:08:03.667Z,98335.27
2019-05-06T09:10:32.516Z,98338.75
2019-05-06T09:13:02.011Z,98333.88
2019-05-06T09:15:32.804Z,98337.90
2019-05-06T09:18:02.960Z,98344.84
2019-05-06T09:20:32.620Z,98348.27
2019-05-06T09:23:04.537Z,98339.37
2019-05-06T09:25:32.301Z,98348.36
2019-05-06T09:28:05.234Z,98348.36
2019-05-06T09:30:43.270Z,98354.47
2019-05-06T09:33:12.958Z,98350.91
2019-05-06T09:35:42.231Z,98343.20
2019-05-06T09:38:12.722Z,98347.65
2019-05-06T09:40:43.103Z,98344.34
2019-05-06T09:43:13.210Z,98356.33
2019-05-06T09:45:42.543Z,98349.41
2019-05-06T09:48:22.432Z,98358.96
2019-05-06T09:50:53.540Z,98355.77
2019-05-06T09:53:34.659Z,98359.94
2019-05-06T09:56:04.646Z,98348.97
2019-05-06T09:58:35.418Z,98354.95
2019-05-06T10:01:04.124Z,98358.74
2019-05-06T10:03:32.438Z,98359.45
2019-05-06T10:06:02.678Z,98364.00
2019-05-06T10:08:32.300Z,98364.13
2019-05-06T10:11:02.942Z,98368.45
2019-05-06T10:13:32.727Z,98371.78
2019-05-06T10:16:03.040Z,98365.50
2019-05-06T10:18:31.214Z,98374.60
2019-05-06T10:20:59.537Z,98372.64
2019-05-06T10:23:27.827Z,98365.70
2019-05-06T10:25:56.188Z,98367.77
2019-05-06T10:28:38.295Z,98366.00
2019-05-06T10:31:08.328Z,98363.72
2019-05-06T10:33:38.267Z,98359.32
2019-05-06T10:36:06.645Z,98360.17
2019-05-06T10:38:52.984Z,98360.72
2019-05-06T10:41:30.327Z,98352.27
2019-05-06T10:44:13.507Z,98352.20
2019-05-06T10:46:43.080Z,98352.11
2019-05-06T10:49:13.181Z,98340.35
2019-05-06T10:51:46.426Z,98343.72
2019-05-06T10:54:14.692Z,98344.98
2019-05-06T10:56:52.837Z,98336.91
2019-05-06T10:59:16.343Z,98333.41
2019-05-06T11:01:46.343Z,98345.96
2019-05-06T11:04:14.662Z,98349.53
2019-05-06T11:06:43.170Z,98355.56
2019-05-06T11:09:13.505Z,98347.59
2019-05-06T11:11:42.761Z,98338.30
2019-05-06T11:14:12.801Z,98341.34
2019-05-06T11:16:41.688Z,98337.10
2019-05-06T11:19:10.368Z,98337.20
2019-05-06T11:21:38.664Z,98337.75
2019-05-06T11:24:07.072Z,98336.27
2019-05-06T11:26:35.379Z,98330.97
2019-05-06T11:29:05.494Z,98325.00
2019-05-06T11:31:44.456Z,98320.56
2019-05-06T11:34:26.260Z,98320.80
2019-05-06T11:36:56.185Z,98313.11
2019-05-06T11:39:24.861Z,98315.13
2019-05-06T11:42:14.470Z,98319.43
2019-05-06T11:44:23.829Z,98317.22
2019-05-06T11:46:53.084Z,98328.69
2019-05-06T11:49:23.323Z,98326.95
2019-05-06T11:51:51.426Z,98329.75
2019-05-06T11:54:23.546Z,98330.65
2019-05-06T11:56:52.683Z,98323.78
2019-05-06T11:59:22.652Z,98331.16
2019-05-06T12:01:53.490Z,98335.01
2019-05-06T12:04:23.028Z,98338.84
2019-05-06T12:06:52.618Z,98325.51
2019-05-06T12:09:22.285Z,98331.63
2019-05-06T12:11:52.879Z,98329.59
2019-05-06T12:14:22.645Z,98324.40
2019-05-06T12:16:54.820Z,98322.92
2019-05-06T12:19:22.536Z,98315.84
2019-05-06T12:21:51.443Z,98312.35
2019-05-06T12:24:19.767Z,98318.39
2019-05-06T12:26:48.058Z,98315.41
2019-05-06T12:29:16.349Z,98310.86
2019-05-06T12:31:46.307Z,98320.36
2019-05-06T12:34:14.844Z,98314.66
2019-05-06T12:36:43.366Z,98310.08
2019-05-06T12:39:18.517Z,98302.48
2019-05-06T12:42:03.690Z,98306.73
2019-05-06T12:44:33.773Z,98317.45
2019-05-06T12:47:09.643Z,98305.18
2019-05-06T12:49:38.234Z,98324.37
2019-05-06T12:52:06.617Z,98332.00
2019-05-06T12:54:35.199Z,98320.30
2019-05-06T12:57:03.659Z,98319.06
2019-05-06T12:59:32.375Z,98314.48
2019-05-06T13:02:02.802Z,98325.05
2019-05-06T13:04:46.371Z,98325.16
2019-05-06T13:07:02.903Z,98315.83
2019-05-06T13:09:32.951Z,98317.33
2019-05-06T13:12:03.465Z,98312.80
2019-05-06T13:14:32.947Z,98316.29
2019-05-06T13:17:02.615Z,98316.01
2019-05-06T13:19:32.239Z,98308.09
2019-05-06T13:22:03.625Z,98308.28
2019-05-06T13:24:32.710Z,98312.31
2019-05-06T13:27:02.515Z,98315.70
2019-05-06T13:29:35.389Z,98319.63
2019-05-06T13:32:03.129Z,98311.46
2019-05-06T13:34:33.329Z,98296.16
2019-05-06T13:37:01.714Z,98301.42
2019-05-06T13:39:32.570Z,98300.02
2019-05-06T13:42:00.171Z,98311.23
2019-05-06T13:44:28.467Z,98316.25
2019-05-06T13:46:56.865Z,98296.34
2019-05-06T13:49:26.860Z,98303.96
2019-05-06T13:51:56.852Z,98299.19
2019-05-06T13:54:25.194Z,98306.19
2019-05-06T13:56:53.492Z,98312.38
2019-05-06T13:59:21.825Z,98299.63
2019-05-06T14:02:06.140Z,98314.81
2019-05-06T14:04:32.686Z,98317.71
2019-05-06T14:07:03.412Z,98325.38
2019-05-06T14:09:35.263Z,98314.13
2019-05-06T14:12:02.601Z,98319.11
2019-05-06T14:14:32.202Z,98318.64
2019-05-06T14:17:00.987Z,98318.91
2019-05-06T14:19:29.311Z,98322.91
2019-05-06T14:21:57.603Z,98320.73
2019-05-06T14:24:27.258Z,98317.70
2019-05-06T14:27:03.293Z,98311.08
2019-05-06T14:29:35.965Z,98306.34
2019-05-06T14:32:04.371Z,98313.31
2019-05-06T14:34:32.723Z,98299.77
2019-05-06T14:37:00.992Z,98317.70
2019-05-06T14:39:48.550Z,98320.09
2019-05-06T14:42:03.918Z,98324.66
2019-05-06T14:44:32.718Z,98356.61
2019-05-06T14:47:05.516Z,98365.94
2019-05-06T14:49:33.809Z,98402.33
2019-05-06T14:52:02.862Z,98371.89
2019-05-06T14:54:33.066Z,98366.64
2019-05-06T14:57:14.355Z,98368.69
2019-05-06T14:59:42.644Z,98374.68
2019-05-06T15:02:13.078Z,98366.29
2019-05-06T15:04:43.512Z,98378.66
2019-05-06T15:07:12.756Z,98368.05
2019-05-06T15:09:55.670Z,98356.38
2019-05-06T15:12:12.960Z,98356.83
2019-05-06T15:14:42.590Z,98364.38
2019-05-06T15:17:11.109Z,98355.80
2019-05-06T15:19:39.758Z,98351.19
2019-05-06T15:22:08.060Z,98362.69
2019-05-06T15:24:36.414Z,98358.20
2019-05-06T15:27:04.802Z,98356.66
2019-05-06T15:29:33.122Z,98347.86
2019-05-06T15:32:03.059Z,98352.87
2019-05-06T15:34:42.338Z,98356.04
2019-05-06T15:37:15.323Z,98358.33
2019-05-06T15:39:43.948Z,98357.52
2019-05-06T15:42:12.957Z,98352.25
2019-05-06T15:44:42.451Z,98351.20
2019-05-06T15:47:13.155Z,98358.61
2019-05-06T15:49:41.917Z,98356.84
2019-05-06T15:52:12.515Z,98349.47
2019-05-06T15:54:42.895Z,98360.32
2019-05-06T15:57:10.809Z,98357.51
2019-05-06T15:59:41.371Z,98354.41
2019-05-06T16:02:09.292Z,98363.64
2019-05-06T16:04:37.619Z,98343.00
2019-05-06T16:07:06.350Z,98368.81
2019-05-06T16:09:34.739Z,98367.63
2019-05-06T16:12:03.267Z,98363.56
2019-05-06T16:14:34.123Z,98351.81
2019-05-06T16:17:01.840Z,98362.56
2019-05-06T16:19:30.124Z,98353.84
2019-05-06T16:21:58.487Z,98364.20
2019-05-06T16:24:28.435Z,98362.40
2019-05-06T16:26:56.760Z,98371.51
2019-05-06T16:29:36.819Z,98361.30
2019-05-06T16:32:07.839Z,98365.62
2019-05-06T16:34:36.686Z,98377.56
2019-05-06T16:37:05.848Z,98360.39
2019-05-06T16:39:34.655Z,98401.36
2019-05-06T16:42:03.752Z,98372.89
2019-05-06T16:44:32.542Z,98369.20
2019-05-06T16:47:02.863Z,98371.58
2019-05-06T16:49:33.187Z,98382.47
2019-05-06T16:52:02.495Z,98371.40
2019-05-06T16:54:34.523Z,98376.64
2019-05-06T16:57:13.613Z,98377.06
2019-05-06T16:59:42.481Z,98383.82
2019-05-06T17:02:13.953Z,98391.41
2019-05-06T17:04:43.972Z,98398.79
2019-05-06T17:07:12.408Z,98396.26
2019-05-06T17:09:42.819Z,98398.19
2019-05-06T17:12:12.669Z,98394.70
2019-05-06T17:14:42.784Z,98405.64
2019-05-06T17:17:10.898Z,98405.41
2019-05-06T17:19:39.194Z,98419.89
2019-05-06T17:22:07.512Z,98401.31
2019-05-06T17:24:35.804Z,98414.69
2019-05-06T17:27:04.259Z,98421.42
2019-05-06T17:29:50.634Z,98420.36
2019-05-06T17:32:22.231Z,98426.57
2019-05-06T17:34:52.769Z,98420.77
2019-05-06T17:37:39.537Z,98425.47
2019-05-06T17:40:14.132Z,98433.64
2019-05-06T17:42:42.388Z,98439.36
2019-05-06T17:45:29.277Z,98444.17
2019-05-06T17:48:08.008Z,98438.69
2019-05-06T17:50:36.368Z,98439.44
2019-05-06T17:53:04.771Z,98449.67
2019-05-06T17:55:33.422Z,98449.23
2019-05-06T17:58:02.520Z,98458.04
2019-05-06T18:00:32.379Z,98454.14
2019-05-06T18:03:02.532Z,98453.28
2019-05-06T18:05:32.492Z,98458.42
2019-05-06T18:08:02.891Z,98458.24
2019-05-06T18:10:33.511Z,98462.34
2019-05-06T18:13:03.162Z,98466.66
2019-05-06T18:15:32.179Z,98466.66
2019-05-06T18:18:02.180Z,98466.96
2019-05-06T18:20:33.355Z,98468.17
2019-05-06T18:23:02.129Z,98476.75
2019-05-06T18:25:32.875Z,98480.69
2019-05-06T18:28:01.225Z,98482.75
2019-05-06T18:30:33.316Z,98486.32
2019-05-06T18:32:59.628Z,98487.63
2019-05-06T18:35:27.936Z,98481.97
2019-05-06T18:37:56.241Z,98495.47
2019-05-06T18:40:24.824Z,98500.78
2019-05-06T18:42:53.117Z,98500.78
2019-05-06T18:45:22.030Z,98507.22
2019-05-06T18:47:53.034Z,98507.22
2019-05-06T18:50:22.087Z,98503.58
2019-05-06T18:52:52.839Z,98503.58
2019-05-06T18:55:22.351Z,98516.40
2019-05-06T18:57:52.826Z,98521.02
2019-05-06T19:00:22.596Z,98521.24
2019-05-06T19:02:52.218Z,98530.41
2019-05-06T19:05:26.762Z,98531.20
2019-05-06T19:07:53.357Z,98531.20
2019-05-06T19:10:23.462Z,98533.95
2019-05-06T19:12:52.790Z,98531.38
2019-05-06T19:15:22.095Z,98538.27
2019-05-06T19:17:52.657Z,98540.50
2019-05-06T19:20:21.923Z,98540.55
2019-05-06T19:22:53.382Z,98546.42
2019-05-06T19:25:22.686Z,98539.76
2019-05-06T19:27:53.019Z,98547.45
2019-05-06T19:30:22.564Z,98547.41
2019-05-06T19:32:53.065Z,98550.63
2019-05-06T19:35:21.557Z,98550.63
2019-05-06T19:37:49.906Z,98546.82
2019-05-06T19:40:18.286Z,98549.66
2019-05-06T19:42:49.961Z,98553.77
2019-05-06T19:45:16.756Z,98553.98
2019-05-06T19:47:45.039Z,98555.59
2019-05-06T19:50:13.602Z,98549.95
2019-05-06T19:52:42.273Z,98561.28
2019-05-06T19:55:12.325Z,98568.66
2019-05-06T19:57:42.963Z,98567.47
2019-05-06T20:00:11.465Z,98567.94
2019-05-06T20:02:39.868Z,98559.77
2019-05-06T20:05:12.527Z,98559.19
2019-05-06T20:07:45.140Z,98569.89
2019-05-06T20:10:22.998Z,98569.89
2019-05-06T20:13:02.714Z,98573.55
2019-05-06T20:15:33.925Z,98569.44
2019-05-06T20:18:03.235Z,98569.79
2019-05-06T20:20:34.322Z,98569.79
2019-05-06T20:23:02.644Z,98570.47
2019-05-06T20:25:31.333Z,98576.50
2019-05-06T20:27:59.642Z,98574.73
2019-05-06T20:30:28.014Z,98570.91
2019-05-06T20:32:56.304Z,98575.98
2019-05-06T20:35:24.702Z,98573.26
2019-05-06T20:37:53.520Z,98573.26
2019-05-06T20:40:22.930Z,98572.28
2019-05-06T20:42:51.524Z,98572.28
2019-05-06T20:45:22.171Z,98571.59
2019-05-06T20:47:52.328Z,98571.59
2019-05-06T20:50:22.536Z,98569.67
2019-05-06T20:52:52.044Z,98560.83
2019-05-06T20:55:22.706Z,98560.83
2019-05-06T20:57:52.730Z,98572.88
2019-05-06T21:00:22.376Z,98572.88
2019-05-06T21:02:53.370Z,98578.08
2019-05-06T21:05:22.783Z,98576.70
2019-05-06T21:07:52.605Z,98576.70
2019-05-06T21:10:22.158Z,98571.69
2019-05-06T21:12:53.002Z,98580.03
2019-05-06T21:15:22.858Z,98568.09
2019-05-06T21:17:51.130Z,98576.56
2019-05-06T21:20:19.774Z,98568.44
2019-05-06T21:22:49.268Z,98582.48
2019-05-06T21:25:18.033Z,98582.48
2019-05-06T21:27:46.502Z,98580.81
2019-05-06T21:30:15.244Z,98580.81
2019-05-06T21:32:43.567Z,98577.21
2019-05-06T21:35:12.640Z,98577.21
2019-05-06T21:37:42.281Z,98575.37
2019-05-06T21:40:12.415Z,98573.91
2019-05-06T21:42:43.185Z,98586.98
2019-05-06T21:45:12.503Z,98595.45
2019-05-06T21:47:44.230Z,98595.45
2019-05-06T21:50:12.110Z,98585.17
2019-05-06T21:52:42.857Z,98590.17
2019-05-06T21:55:13.175Z,98594.02
2019-05-06T21:57:42.278Z,98575.52
2019-05-06T22:00:16.797Z,98575.52
2019-05-06T22:02:43.500Z,98591.80
2019-05-06T22:05:13.321Z,98589.65
2019-05-06T22:07:43.458Z,98588.42
2019-05-06T22:10:12.321Z,98588.42
2019-05-06T22:12:43.152Z,98589.12
2019-05-06T22:15:11.903Z,98587.11
2019-05-06T22:17:42.766Z,98588.31
2019-05-06T22:20:11.086Z,98572.47
2019-05-06T22:22:43.453Z,98580.26
2019-05-06T22:25:12.519Z,98580.26
2019-05-06T22:27:42.394Z,98585.71
2019-05-06T22:30:11.816Z,98583.19
2019-05-06T22:32:45.789Z,98581.05
2019-05-06T22:35:15.947Z,98581.05
2019-05-06T22:37:45.082Z,98571.17
2019-05-06T22:40:14.345Z,98568.80
2019-05-06T22:42:43.225Z,98568.80
2019-05-06T22:45:13.187Z,98575.41
2019-05-06T22:47:42.115Z,98577.50
2019-05-06T22:50:13.156Z,98567.42
2019-05-06T22:52:42.066Z,98567.42
2019-05-06T22:55:12.988Z,98573.28
2019-05-06T22:57:42.250Z,98573.42
2019-05-06T23:00:15.154Z,98573.09
2019-05-06T23:02:54.125Z,98570.98
2019-05-06T23:05:23.132Z,98580.56
2019-05-06T23:07:53.264Z,98580.56
2019-05-06T23:10:24.497Z,98584.69
2019-05-06T23:12:52.296Z,98584.69
2019-05-06T23:15:20.809Z,98576.52
2019-05-06T23:17:49.134Z,98579.11
2019-05-06T23:20:17.623Z,98582.01
2019-05-06T23:22:45.921Z,98575.77
2019-05-06T23:25:14.318Z,98581.25
2019-05-06T23:27:44.111Z,98585.53
2019-05-06T23:30:12.886Z,98565.98
2019-05-06T23:32:42.271Z,98565.98
2019-05-06T23:35:12.857Z,98572.69
2019-05-06T23:38:17.319Z,98570.78
2019-05-06T23:41:21.993Z,98560.84
2019-05-06T23:44:27.084Z,98560.84
2019-05-06T23:47:32.214Z,98569.72
2019-05-06T23:50:37.137Z,98561.88
2019-05-06T23:53:41.650Z,98561.88
2019-05-06T23:56:46.383Z,98574.63
2019-05-06T23:59:17.220Z,98563.49
